sensor_id;sensor_type;location;lat;lon;timestamp;temperature;humidity
20512;DHT22;10414;52.074;5.126;2023-06-14T00:00:35;19.20;90.90
20512;DHT22;10414;52.074;5.126;2023-06-14T00:03:05;19.20;90.80
20512;DHT22;10414;52.074;5.126;2023-06-14T00:05:32;19.20;90.70
20512;DHT22;10414;52.074;5.126;2023-06-14T00:08:04;19.20;90.80
20512;DHT22;10414;52.074;5.126;2023-06-14T00:10:35;19.20;91.00
20512;DHT22;10414;52.074;5.126;2023-06-14T00:13:02;19.20;90.80
20512;DHT22;10414;52.074;5.126;2023-06-14T00:15:30;19.10;90.70
20512;DHT22;10414;52.074;5.126;2023-06-14T00:17:58;19.10;90.50
20512;DHT22;10414;52.074;5.126;2023-06-14T00:20:26;19.10;90.50
20512;DHT22;10414;52.074;5.126;2023-06-14T00:22:53;19.00;90.60
20512;DHT22;10414;52.074;5.126;2023-06-14T00:25:22;19.10;90.60
20512;DHT22;10414;52.074;5.126;2023-06-14T00:27:50;19.00;90.40
20512;DHT22;10414;52.074;5.126;2023-06-14T00:30:17;19.00;90.50
20512;DHT22;10414;52.074;5.126;2023-06-14T00:32:45;19.00;90.50
20512;DHT22;10414;52.074;5.126;2023-06-14T00:35:12;19.00;90.40
20512;DHT22;10414;52.074;5.126;2023-06-14T00:37:39;19.00;90.60
20512;DHT22;10414;52.074;5.126;2023-06-14T00:40:07;19.10;90.90
20512;DHT22;10414;52.074;5.126;2023-06-14T00:42:34;19.00;90.20
20512;DHT22;10414;52.074;5.126;2023-06-14T00:45:04;19.00;90.40
20512;DHT22;10414;52.074;5.126;2023-06-14T00:47:31;19.00;90.20
20512;DHT22;10414;52.074;5.126;2023-06-14T00:49:59;19.00;90.30
20512;DHT22;10414;52.074;5.126;2023-06-14T00:52:27;19.00;90.50
20512;DHT22;10414;52.074;5.126;2023-06-14T00:54:55;19.00;90.30
20512;DHT22;10414;52.074;5.126;2023-06-14T00:57:22;19.00;90.40
20512;DHT22;10414;52.074;5.126;2023-06-14T00:59:49;18.80;90.40
20512;DHT22;10414;52.074;5.126;2023-06-14T01:02:18;18.80;90.60
20512;DHT22;10414;52.074;5.126;2023-06-14T01:04:47;18.80;90.60
20512;DHT22;10414;52.074;5.126;2023-06-14T01:07:21;18.90;90.70
20512;DHT22;10414;52.074;5.126;2023-06-14T01:09:58;18.90;90.80
20512;DHT22;10414;52.074;5.126;2023-06-14T01:12:36;18.80;90.80
20512;DHT22;10414;52.074;5.126;2023-06-14T01:15:06;18.80;91.00
20512;DHT22;10414;52.074;5.126;2023-06-14T01:17:36;18.70;90.90
20512;DHT22;10414;52.074;5.126;2023-06-14T01:20:11;18.70;90.90
20512;DHT22;10414;52.074;5.126;2023-06-14T01:22:50;18.70;91.00
20512;DHT22;10414;52.074;5.126;2023-06-14T01:25:18;18.70;91.00
20512;DHT22;10414;52.074;5.126;2023-06-14T01:27:47;18.70;91.20
20512;DHT22;10414;52.074;5.126;2023-06-14T01:30:15;18.70;91.10
20512;DHT22;10414;52.074;5.126;2023-06-14T01:32:43;18.70;91.30
20512;DHT22;10414;52.074;5.126;2023-06-14T01:35:10;18.70;91.20
20512;DHT22;10414;52.074;5.126;2023-06-14T01:37:38;18.60;91.20
20512;DHT22;10414;52.074;5.126;2023-06-14T01:40:10;18.50;91.60
20512;DHT22;10414;52.074;5.126;2023-06-14T01:42:38;18.60;91.30
20512;DHT22;10414;52.074;5.126;2023-06-14T01:45:07;18.60;91.50
20512;DHT22;10414;52.074;5.126;2023-06-14T01:47:36;18.60;91.50
20512;DHT22;10414;52.074;5.126;2023-06-14T01:50:04;18.60;91.30
20512;DHT22;10414;52.074;5.126;2023-06-14T01:52:32;18.70;91.50
20512;DHT22;10414;52.074;5.126;2023-06-14T01:54:59;18.60;91.30
20512;DHT22;10414;52.074;5.126;2023-06-14T01:57:29;18.60;91.20
20512;DHT22;10414;52.074;5.126;2023-06-14T01:59:56;18.60;91.20
20512;DHT22;10414;52.074;5.126;2023-06-14T02:02:23;18.70;91.30
20512;DHT22;10414;52.074;5.126;2023-06-14T02:04:50;18.50;91.60
20512;DHT22;10414;52.074;5.126;2023-06-14T02:07:17;18.40;91.80
20512;DHT22;10414;52.074;5.126;2023-06-14T02:09:44;18.30;91.80
20512;DHT22;10414;52.074;5.126;2023-06-14T02:12:12;18.40;91.70
20512;DHT22;10414;52.074;5.126;2023-06-14T02:14:40;18.40;91.60
20512;DHT22;10414;52.074;5.126;2023-06-14T02:17:07;18.40;91.80
20512;DHT22;10414;52.074;5.126;2023-06-14T02:19:34;18.30;91.90
20512;DHT22;10414;52.074;5.126;2023-06-14T02:22:01;18.30;92.00
20512;DHT22;10414;52.074;5.126;2023-06-14T02:24:28;18.20;91.90
20512;DHT22;10414;52.074;5.126;2023-06-14T02:26:55;18.20;92.10
20512;DHT22;10414;52.074;5.126;2023-06-14T02:29:22;18.10;92.30
20512;DHT22;10414;52.074;5.126;2023-06-14T02:31:51;18.10;92.40
20512;DHT22;10414;52.074;5.126;2023-06-14T02:34:18;18.10;92.40
20512;DHT22;10414;52.074;5.126;2023-06-14T02:36:46;18.20;92.50
20512;DHT22;10414;52.074;5.126;2023-06-14T02:39:13;18.10;92.30
20512;DHT22;10414;52.074;5.126;2023-06-14T02:41:41;18.10;92.60
20512;DHT22;10414;52.074;5.126;2023-06-14T02:44:09;18.00;92.80
20512;DHT22;10414;52.074;5.126;2023-06-14T02:46:37;18.10;92.60
20512;DHT22;10414;52.074;5.126;2023-06-14T02:49:06;18.20;92.80
20512;DHT22;10414;52.074;5.126;2023-06-14T02:51:33;18.10;92.60
20512;DHT22;10414;52.074;5.126;2023-06-14T02:54:00;18.00;92.80
20512;DHT22;10414;52.074;5.126;2023-06-14T02:56:27;17.90;93.10
20512;DHT22;10414;52.074;5.126;2023-06-14T02:58:54;17.90;93.00
20512;DHT22;10414;52.074;5.126;2023-06-14T03:01:21;17.80;93.10
20512;DHT22;10414;52.074;5.126;2023-06-14T03:03:51;17.70;93.30
20512;DHT22;10414;52.074;5.126;2023-06-14T03:06:20;17.70;93.50
20512;DHT22;10414;52.074;5.126;2023-06-14T03:08:50;17.80;93.70
20512;DHT22;10414;52.074;5.126;2023-06-14T03:11:20;17.80;93.40
20512;DHT22;10414;52.074;5.126;2023-06-14T03:13:48;17.60;93.70
20512;DHT22;10414;52.074;5.126;2023-06-14T03:16:16;17.40;94.10
20512;DHT22;10414;52.074;5.126;2023-06-14T03:18:45;17.50;94.30
20512;DHT22;10414;52.074;5.126;2023-06-14T03:21:12;17.30;94.40
20512;DHT22;10414;52.074;5.126;2023-06-14T03:23:43;17.50;94.60
20512;DHT22;10414;52.074;5.126;2023-06-14T03:26:10;17.50;94.40
20512;DHT22;10414;52.074;5.126;2023-06-14T03:28:40;17.30;94.70
20512;DHT22;10414;52.074;5.126;2023-06-14T03:31:07;17.20;94.70
20512;DHT22;10414;52.074;5.126;2023-06-14T03:33:35;17.30;95.20
20512;DHT22;10414;52.074;5.126;2023-06-14T03:36:02;17.20;95.00
20512;DHT22;10414;52.074;5.126;2023-06-14T03:38:29;17.20;95.10
20512;DHT22;10414;52.074;5.126;2023-06-14T03:40:57;17.40;95.00
20512;DHT22;10414;52.074;5.126;2023-06-14T03:43:24;17.40;95.00
20512;DHT22;10414;52.074;5.126;2023-06-14T03:45:51;17.40;95.00
20512;DHT22;10414;52.074;5.126;2023-06-14T03:48:18;17.30;95.20
20512;DHT22;10414;52.074;5.126;2023-06-14T03:50:45;17.40;95.10
20512;DHT22;10414;52.074;5.126;2023-06-14T03:53:12;17.70;94.70
20512;DHT22;10414;52.074;5.126;2023-06-14T03:55:40;18.10;94.00
20512;DHT22;10414;52.074;5.126;2023-06-14T03:58:09;18.40;93.60
20512;DHT22;10414;52.074;5.126;2023-06-14T04:00:36;19.00;92.70
20512;DHT22;10414;52.074;5.126;2023-06-14T04:03:03;19.30;91.90
20512;DHT22;10414;52.074;5.126;2023-06-14T04:05:31;19.80;91.20
20512;DHT22;10414;52.074;5.126;2023-06-14T04:07:58;20.10;90.50
20512;DHT22;10414;52.074;5.126;2023-06-14T04:10:26;20.20;90.40
20512;DHT22;10414;52.074;5.126;2023-06-14T04:12:54;21.00;88.40
20512;DHT22;10414;52.074;5.126;2023-06-14T04:15:22;21.10;86.40
20512;DHT22;10414;52.074;5.126;2023-06-14T04:17:49;20.90;87.00
20512;DHT22;10414;52.074;5.126;2023-06-14T04:20:16;21.20;85.70
20512;DHT22;10414;52.074;5.126;2023-06-14T04:22:43;20.90;86.60
20512;DHT22;10414;52.074;5.126;2023-06-14T04:25:10;20.90;86.40
20512;DHT22;10414;52.074;5.126;2023-06-14T04:27:37;21.80;84.70
20512;DHT22;10414;52.074;5.126;2023-06-14T04:30:06;22.50;82.70
20512;DHT22;10414;52.074;5.126;2023-06-14T04:32:35;22.40;81.90
20512;DHT22;10414;52.074;5.126;2023-06-14T04:35:05;22.20;82.70
20512;DHT22;10414;52.074;5.126;2023-06-14T04:37:32;22.00;82.60
20512;DHT22;10414;52.074;5.126;2023-06-14T04:39:59;22.20;82.50
20512;DHT22;10414;52.074;5.126;2023-06-14T04:42:26;22.30;81.90
20512;DHT22;10414;52.074;5.126;2023-06-14T04:44:56;22.40;82.10
20512;DHT22;10414;52.074;5.126;2023-06-14T04:47:24;21.90;82.80
20512;DHT22;10414;52.074;5.126;2023-06-14T04:49:56;21.80;83.50
20512;DHT22;10414;52.074;5.126;2023-06-14T04:52:26;22.30;82.40
20512;DHT22;10414;52.074;5.126;2023-06-14T04:54:56;22.40;82.20
20512;DHT22;10414;52.074;5.126;2023-06-14T04:57:24;22.70;81.90
20512;DHT22;10414;52.074;5.126;2023-06-14T04:59:51;23.20;80.30
20512;DHT22;10414;52.074;5.126;2023-06-14T05:02:21;23.70;79.20
20512;DHT22;10414;52.074;5.126;2023-06-14T05:04:49;24.10;78.60
20512;DHT22;10414;52.074;5.126;2023-06-14T05:07:18;24.80;77.20
20512;DHT22;10414;52.074;5.126;2023-06-14T05:09:45;25.30;76.20
20512;DHT22;10414;52.074;5.126;2023-06-14T05:12:13;25.60;75.40
20512;DHT22;10414;52.074;5.126;2023-06-14T05:14:43;25.30;76.00
20512;DHT22;10414;52.074;5.126;2023-06-14T05:17:10;24.90;76.70
20512;DHT22;10414;52.074;5.126;2023-06-14T05:19:37;26.40;74.90
20512;DHT22;10414;52.074;5.126;2023-06-14T05:22:05;26.70;74.20
20512;DHT22;10414;52.074;5.126;2023-06-14T05:24:34;25.90;74.70
20512;DHT22;10414;52.074;5.126;2023-06-14T05:27:01;25.80;74.80
20512;DHT22;10414;52.074;5.126;2023-06-14T05:29:28;26.30;74.40
20512;DHT22;10414;52.074;5.126;2023-06-14T05:31:55;26.50;73.60
20512;DHT22;10414;52.074;5.126;2023-06-14T05:34:22;27.40;72.70
20512;DHT22;10414;52.074;5.126;2023-06-14T05:36:49;28.20;71.80
20512;DHT22;10414;52.074;5.126;2023-06-14T05:39:16;28.80;70.80
20512;DHT22;10414;52.074;5.126;2023-06-14T05:41:44;29.10;70.10
20512;DHT22;10414;52.074;5.126;2023-06-14T05:44:11;29.60;69.50
20512;DHT22;10414;52.074;5.126;2023-06-14T05:46:38;28.80;69.70
20512;DHT22;10414;52.074;5.126;2023-06-14T05:49:05;28.20;70.30
20512;DHT22;10414;52.074;5.126;2023-06-14T05:51:33;28.40;69.60
20512;DHT22;10414;52.074;5.126;2023-06-14T05:54:00;26.70;71.30
20512;DHT22;10414;52.074;5.126;2023-06-14T05:56:27;25.50;73.40
20512;DHT22;10414;52.074;5.126;2023-06-14T05:58:56;26.20;72.80
20512;DHT22;10414;52.074;5.126;2023-06-14T06:01:23;26.90;71.60
20512;DHT22;10414;52.074;5.126;2023-06-14T06:03:51;28.10;70.80
20512;DHT22;10414;52.074;5.126;2023-06-14T06:06:18;29.60;68.40
20512;DHT22;10414;52.074;5.126;2023-06-14T06:08:45;28.70;69.60
20512;DHT22;10414;52.074;5.126;2023-06-14T06:11:12;28.30;69.50
20512;DHT22;10414;52.074;5.126;2023-06-14T06:13:39;28.30;69.50
20512;DHT22;10414;52.074;5.126;2023-06-14T06:16:07;28.00;70.00
20512;DHT22;10414;52.074;5.126;2023-06-14T06:18:34;27.70;70.50
20512;DHT22;10414;52.074;5.126;2023-06-14T06:21:03;28.10;70.00
20512;DHT22;10414;52.074;5.126;2023-06-14T06:23:30;28.20;70.50
20512;DHT22;10414;52.074;5.126;2023-06-14T06:25:57;28.10;69.70
20512;DHT22;10414;52.074;5.126;2023-06-14T06:28:24;27.60;70.10
20512;DHT22;10414;52.074;5.126;2023-06-14T06:30:51;27.80;70.20
20512;DHT22;10414;52.074;5.126;2023-06-14T06:33:21;28.70;69.90
20512;DHT22;10414;52.074;5.126;2023-06-14T06:35:49;30.90;67.40
20512;DHT22;10414;52.074;5.126;2023-06-14T06:38:16;31.60;66.40
20512;DHT22;10414;52.074;5.126;2023-06-14T06:40:44;30.20;67.20
20512;DHT22;10414;52.074;5.126;2023-06-14T06:43:11;28.70;69.10
20512;DHT22;10414;52.074;5.126;2023-06-14T06:45:39;30.40;67.70
20512;DHT22;10414;52.074;5.126;2023-06-14T06:48:06;31.90;66.10
20512;DHT22;10414;52.074;5.126;2023-06-14T06:50:34;32.10;65.70
20512;DHT22;10414;52.074;5.126;2023-06-14T06:53:01;32.70;65.20
20512;DHT22;10414;52.074;5.126;2023-06-14T06:55:28;31.60;65.50
20512;DHT22;10414;52.074;5.126;2023-06-14T06:57:55;31.90;65.10
20512;DHT22;10414;52.074;5.126;2023-06-14T07:00:22;30.30;66.10
20512;DHT22;10414;52.074;5.126;2023-06-14T07:02:49;29.90;67.20
20512;DHT22;10414;52.074;5.126;2023-06-14T07:05:16;28.80;68.30
20512;DHT22;10414;52.074;5.126;2023-06-14T07:07:45;28.70;68.90
20512;DHT22;10414;52.074;5.126;2023-06-14T07:10:11;29.10;68.80
20512;DHT22;10414;52.074;5.126;2023-06-14T07:12:38;29.90;67.20
20512;DHT22;10414;52.074;5.126;2023-06-14T07:15:06;29.80;68.20
20512;DHT22;10414;52.074;5.126;2023-06-14T07:17:34;28.50;69.30
20512;DHT22;10414;52.074;5.126;2023-06-14T07:20:02;28.30;70.00
20512;DHT22;10414;52.074;5.126;2023-06-14T07:22:38;30.50;67.50
20512;DHT22;10414;52.074;5.126;2023-06-14T07:25:08;31.60;66.30
20512;DHT22;10414;52.074;5.126;2023-06-14T07:27:35;31.80;65.50
20512;DHT22;10414;52.074;5.126;2023-06-14T07:30:03;32.10;65.40
20512;DHT22;10414;52.074;5.126;2023-06-14T07:32:30;31.10;65.90
20512;DHT22;10414;52.074;5.126;2023-06-14T07:34:57;30.80;66.10
20512;DHT22;10414;52.074;5.126;2023-06-14T07:37:24;30.50;66.20
20512;DHT22;10414;52.074;5.126;2023-06-14T07:39:51;29.60;67.40
20512;DHT22;10414;52.074;5.126;2023-06-14T07:42:20;30.00;65.80
20512;DHT22;10414;52.074;5.126;2023-06-14T07:44:47;30.00;66.40
20512;DHT22;10414;52.074;5.126;2023-06-14T07:47:15;30.20;65.50
20512;DHT22;10414;52.074;5.126;2023-06-14T07:49:43;29.50;66.40
20512;DHT22;10414;52.074;5.126;2023-06-14T07:52:10;29.50;66.50
20512;DHT22;10414;52.074;5.126;2023-06-14T07:54:39;29.40;67.30
20512;DHT22;10414;52.074;5.126;2023-06-14T07:57:06;29.70;67.20
20512;DHT22;10414;52.074;5.126;2023-06-14T07:59:35;29.00;67.00
20512;DHT22;10414;52.074;5.126;2023-06-14T08:02:03;28.20;67.70
20512;DHT22;10414;52.074;5.126;2023-06-14T08:04:32;29.20;67.30
20512;DHT22;10414;52.074;5.126;2023-06-14T08:06:59;27.90;68.30
20512;DHT22;10414;52.074;5.126;2023-06-14T08:09:26;29.10;67.40
20512;DHT22;10414;52.074;5.126;2023-06-14T08:11:54;30.60;65.20
20512;DHT22;10414;52.074;5.126;2023-06-14T08:14:21;30.40;65.20
20512;DHT22;10414;52.074;5.126;2023-06-14T08:16:50;31.80;64.40
20512;DHT22;10414;52.074;5.126;2023-06-14T08:19:17;31.30;64.50
20512;DHT22;10414;52.074;5.126;2023-06-14T08:21:44;30.70;64.40
20512;DHT22;10414;52.074;5.126;2023-06-14T08:24:12;31.10;63.60
20512;DHT22;10414;52.074;5.126;2023-06-14T08:26:39;29.40;65.40
20512;DHT22;10414;52.074;5.126;2023-06-14T08:29:07;30.20;64.90
20512;DHT22;10414;52.074;5.126;2023-06-14T08:31:34;30.80;63.70
20512;DHT22;10414;52.074;5.126;2023-06-14T08:34:02;30.00;64.50
20512;DHT22;10414;52.074;5.126;2023-06-14T08:36:29;27.90;66.40
20512;DHT22;10414;52.074;5.126;2023-06-14T08:38:56;27.80;67.00
20512;DHT22;10414;52.074;5.126;2023-06-14T08:41:23;28.70;66.30
20512;DHT22;10414;52.074;5.126;2023-06-14T08:43:51;29.40;65.00
20512;DHT22;10414;52.074;5.126;2023-06-14T08:46:18;29.60;65.10
20512;DHT22;10414;52.074;5.126;2023-06-14T08:48:47;30.00;64.90
20512;DHT22;10414;52.074;5.126;2023-06-14T08:51:18;30.50;64.40
20512;DHT22;10414;52.074;5.126;2023-06-14T08:53:50;31.00;64.40
20512;DHT22;10414;52.074;5.126;2023-06-14T08:56:18;31.50;62.10
20512;DHT22;10414;52.074;5.126;2023-06-14T08:58:47;31.30;63.30
20512;DHT22;10414;52.074;5.126;2023-06-14T09:01:15;31.70;63.10
20512;DHT22;10414;52.074;5.126;2023-06-14T09:03:43;32.20;61.60
20512;DHT22;10414;52.074;5.126;2023-06-14T09:06:11;31.70;61.60
20512;DHT22;10414;52.074;5.126;2023-06-14T09:08:42;30.80;62.70
20512;DHT22;10414;52.074;5.126;2023-06-14T09:11:11;31.00;62.80
20512;DHT22;10414;52.074;5.126;2023-06-14T09:13:39;31.40;63.10
20512;DHT22;10414;52.074;5.126;2023-06-14T09:16:06;31.60;62.20
20512;DHT22;10414;52.074;5.126;2023-06-14T09:18:35;30.60;63.00
20512;DHT22;10414;52.074;5.126;2023-06-14T09:21:03;30.50;63.40
20512;DHT22;10414;52.074;5.126;2023-06-14T09:23:33;30.10;62.70
20512;DHT22;10414;52.074;5.126;2023-06-14T09:26:06;29.50;63.00
20512;DHT22;10414;52.074;5.126;2023-06-14T09:28:33;29.60;63.30
20512;DHT22;10414;52.074;5.126;2023-06-14T09:31:01;29.30;63.90
20512;DHT22;10414;52.074;5.126;2023-06-14T09:33:28;28.80;64.20
20512;DHT22;10414;52.074;5.126;2023-06-14T09:35:55;28.00;64.40
20512;DHT22;10414;52.074;5.126;2023-06-14T09:38:22;27.90;65.10
20512;DHT22;10414;52.074;5.126;2023-06-14T09:40:51;28.30;64.40
20512;DHT22;10414;52.074;5.126;2023-06-14T09:43:19;28.50;64.40
20512;DHT22;10414;52.074;5.126;2023-06-14T09:45:48;28.30;64.40
20512;DHT22;10414;52.074;5.126;2023-06-14T09:48:15;27.30;66.20
20512;DHT22;10414;52.074;5.126;2023-06-14T09:50:45;27.80;65.10
20512;DHT22;10414;52.074;5.126;2023-06-14T09:53:12;27.10;66.60
20512;DHT22;10414;52.074;5.126;2023-06-14T09:55:41;27.60;65.50
20512;DHT22;10414;52.074;5.126;2023-06-14T09:58:10;27.70;65.30
20512;DHT22;10414;52.074;5.126;2023-06-14T10:00:39;27.70;64.70
20512;DHT22;10414;52.074;5.126;2023-06-14T10:03:12;27.00;65.30
20512;DHT22;10414;52.074;5.126;2023-06-14T10:05:43;27.20;64.20
20512;DHT22;10414;52.074;5.126;2023-06-14T10:08:13;27.10;64.20
20512;DHT22;10414;52.074;5.126;2023-06-14T10:10:42;27.50;63.80
20512;DHT22;10414;52.074;5.126;2023-06-14T10:13:10;27.20;63.40
20512;DHT22;10414;52.074;5.126;2023-06-14T10:15:46;27.00;64.30
20512;DHT22;10414;52.074;5.126;2023-06-14T10:18:23;26.90;64.70
20512;DHT22;10414;52.074;5.126;2023-06-14T10:20:58;27.10;65.40
20512;DHT22;10414;52.074;5.126;2023-06-14T10:23:28;27.90;64.00
20512;DHT22;10414;52.074;5.126;2023-06-14T10:25:57;28.30;63.50
20512;DHT22;10414;52.074;5.126;2023-06-14T10:28:25;27.70;64.00
20512;DHT22;10414;52.074;5.126;2023-06-14T10:31:04;27.40;64.90
20512;DHT22;10414;52.074;5.126;2023-06-14T10:33:32;27.40;64.50
20512;DHT22;10414;52.074;5.126;2023-06-14T10:36:25;27.60;62.90
20512;DHT22;10414;52.074;5.126;2023-06-14T10:39:00;27.90;63.00
20512;DHT22;10414;52.074;5.126;2023-06-14T10:41:28;27.90;63.10
20512;DHT22;10414;52.074;5.126;2023-06-14T10:47:20;27.40;64.40
20512;DHT22;10414;52.074;5.126;2023-06-14T10:49:50;27.10;64.60
20512;DHT22;10414;52.074;5.126;2023-06-14T10:52:22;27.90;63.90
20512;DHT22;10414;52.074;5.126;2023-06-14T10:54:59;28.60;63.00
20512;DHT22;10414;52.074;5.126;2023-06-14T10:57:26;28.70;62.80
20512;DHT22;10414;52.074;5.126;2023-06-14T10:59:53;28.80;62.80
20512;DHT22;10414;52.074;5.126;2023-06-14T11:02:45;29.60;61.10
20512;DHT22;10414;52.074;5.126;2023-06-14T11:05:15;29.20;61.30
20512;DHT22;10414;52.074;5.126;2023-06-14T11:07:48;28.80;61.90
20512;DHT22;10414;52.074;5.126;2023-06-14T11:10:30;28.60;61.50
20512;DHT22;10414;52.074;5.126;2023-06-14T11:13:01;28.20;61.40
20512;DHT22;10414;52.074;5.126;2023-06-14T11:15:29;28.70;62.30
20512;DHT22;10414;52.074;5.126;2023-06-14T11:18:00;29.20;62.00
20512;DHT22;10414;52.074;5.126;2023-06-14T11:20:30;29.10;62.70
20512;DHT22;10414;52.074;5.126;2023-06-14T11:22:58;28.80;63.40
20512;DHT22;10414;52.074;5.126;2023-06-14T11:25:26;29.50;63.10
20512;DHT22;10414;52.074;5.126;2023-06-14T11:27:55;29.50;62.60
20512;DHT22;10414;52.074;5.126;2023-06-14T11:30:23;28.60;63.60
20512;DHT22;10414;52.074;5.126;2023-06-14T11:32:52;27.80;65.00
20512;DHT22;10414;52.074;5.126;2023-06-14T11:35:23;28.20;64.60
20512;DHT22;10414;52.074;5.126;2023-06-14T11:37:55;28.10;63.70
20512;DHT22;10414;52.074;5.126;2023-06-14T11:40:24;28.00;63.60
20512;DHT22;10414;52.074;5.126;2023-06-14T11:42:58;27.40;65.10
20512;DHT22;10414;52.074;5.126;2023-06-14T11:45:27;27.90;64.20
20512;DHT22;10414;52.074;5.126;2023-06-14T11:47:55;28.00;63.80
20512;DHT22;10414;52.074;5.126;2023-06-14T11:50:25;27.50;64.40
20512;DHT22;10414;52.074;5.126;2023-06-14T11:52:53;27.20;64.60
20512;DHT22;10414;52.074;5.126;2023-06-14T11:55:20;27.60;64.90
20512;DHT22;10414;52.074;5.126;2023-06-14T11:57:47;27.60;64.40
20512;DHT22;10414;52.074;5.126;2023-06-14T12:00:15;27.30;65.10
20512;DHT22;10414;52.074;5.126;2023-06-14T12:02:51;26.90;65.50
20512;DHT22;10414;52.074;5.126;2023-06-14T12:05:21;26.70;65.90
20512;DHT22;10414;52.074;5.126;2023-06-14T12:07:49;26.80;66.20
20512;DHT22;10414;52.074;5.126;2023-06-14T12:10:19;26.80;65.10
20512;DHT22;10414;52.074;5.126;2023-06-14T12:12:47;26.50;66.00
20512;DHT22;10414;52.074;5.126;2023-06-14T12:15:14;26.30;66.60
20512;DHT22;10414;52.074;5.126;2023-06-14T12:17:42;26.40;65.70
20512;DHT22;10414;52.074;5.126;2023-06-14T12:20:13;26.40;65.80
20512;DHT22;10414;52.074;5.126;2023-06-14T12:22:52;26.30;65.20
20512;DHT22;10414;52.074;5.126;2023-06-14T12:25:27;25.80;65.80
20512;DHT22;10414;52.074;5.126;2023-06-14T12:27:56;25.90;65.90
20512;DHT22;10414;52.074;5.126;2023-06-14T12:30:24;26.20;66.30
20512;DHT22;10414;52.074;5.126;2023-06-14T12:32:51;26.20;66.00
20512;DHT22;10414;52.074;5.126;2023-06-14T12:35:19;26.20;65.30
20512;DHT22;10414;52.074;5.126;2023-06-14T12:37:47;25.90;64.40
20512;DHT22;10414;52.074;5.126;2023-06-14T12:40:16;26.10;66.20
20512;DHT22;10414;52.074;5.126;2023-06-14T12:42:45;26.10;66.40
20512;DHT22;10414;52.074;5.126;2023-06-14T12:45:12;25.90;66.10
20512;DHT22;10414;52.074;5.126;2023-06-14T12:47:39;25.90;65.70
20512;DHT22;10414;52.074;5.126;2023-06-14T12:50:07;25.80;65.90
20512;DHT22;10414;52.074;5.126;2023-06-14T12:52:34;26.10;66.50
20512;DHT22;10414;52.074;5.126;2023-06-14T12:55:03;26.00;66.60
20512;DHT22;10414;52.074;5.126;2023-06-14T12:57:32;25.80;67.00
20512;DHT22;10414;52.074;5.126;2023-06-14T13:00:02;26.00;66.50
20512;DHT22;10414;52.074;5.126;2023-06-14T13:02:30;26.10;66.70
20512;DHT22;10414;52.074;5.126;2023-06-14T13:04:57;25.90;67.00
20512;DHT22;10414;52.074;5.126;2023-06-14T13:07:24;25.80;67.80
20512;DHT22;10414;52.074;5.126;2023-06-14T13:09:51;26.10;67.40
20512;DHT22;10414;52.074;5.126;2023-06-14T13:12:19;26.10;67.10
20512;DHT22;10414;52.074;5.126;2023-06-14T13:14:48;25.90;67.60
20512;DHT22;10414;52.074;5.126;2023-06-14T13:17:16;25.70;67.50
20512;DHT22;10414;52.074;5.126;2023-06-14T13:19:43;25.90;67.60
20512;DHT22;10414;52.074;5.126;2023-06-14T13:22:10;25.90;67.90
20512;DHT22;10414;52.074;5.126;2023-06-14T13:24:37;26.40;67.90
20512;DHT22;10414;52.074;5.126;2023-06-14T13:27:04;26.40;67.50
20512;DHT22;10414;52.074;5.126;2023-06-14T13:29:32;26.40;68.00
20512;DHT22;10414;52.074;5.126;2023-06-14T13:32:03;26.40;67.70
20512;DHT22;10414;52.074;5.126;2023-06-14T13:34:30;26.40;66.90
20512;DHT22;10414;52.074;5.126;2023-06-14T13:36:57;26.40;67.40
20512;DHT22;10414;52.074;5.126;2023-06-14T13:39:25;26.20;66.20
20512;DHT22;10414;52.074;5.126;2023-06-14T13:41:52;26.20;66.20
20512;DHT22;10414;52.074;5.126;2023-06-14T13:44:20;25.90;66.80
20512;DHT22;10414;52.074;5.126;2023-06-14T13:46:47;25.90;66.40
20512;DHT22;10414;52.074;5.126;2023-06-14T13:49:17;26.00;65.90
20512;DHT22;10414;52.074;5.126;2023-06-14T13:51:44;26.00;65.30
20512;DHT22;10414;52.074;5.126;2023-06-14T13:54:13;26.00;64.10
20512;DHT22;10414;52.074;5.126;2023-06-14T13:56:41;26.00;63.70
20512;DHT22;10414;52.074;5.126;2023-06-14T13:59:08;26.20;63.80
20512;DHT22;10414;52.074;5.126;2023-06-14T14:01:36;26.20;64.40
20512;DHT22;10414;52.074;5.126;2023-06-14T14:04:04;26.20;64.60
20512;DHT22;10414;52.074;5.126;2023-06-14T14:06:33;26.20;64.60
20512;DHT22;10414;52.074;5.126;2023-06-14T14:09:00;26.00;66.50
20512;DHT22;10414;52.074;5.126;2023-06-14T14:11:28;25.90;66.20
20512;DHT22;10414;52.074;5.126;2023-06-14T14:13:59;25.80;66.80
20512;DHT22;10414;52.074;5.126;2023-06-14T14:16:27;25.80;67.60
20512;DHT22;10414;52.074;5.126;2023-06-14T14:18:54;25.80;68.00
20512;DHT22;10414;52.074;5.126;2023-06-14T14:21:21;26.10;67.20
20512;DHT22;10414;52.074;5.126;2023-06-14T14:23:50;26.30;66.70
20512;DHT22;10414;52.074;5.126;2023-06-14T14:26:17;26.40;66.90
20512;DHT22;10414;52.074;5.126;2023-06-14T14:28:45;26.50;66.40
20512;DHT22;10414;52.074;5.126;2023-06-14T14:31:12;26.40;67.20
20512;DHT22;10414;52.074;5.126;2023-06-14T14:33:39;26.10;67.30
20512;DHT22;10414;52.074;5.126;2023-06-14T14:36:06;26.20;66.50
20512;DHT22;10414;52.074;5.126;2023-06-14T14:38:33;26.20;66.80
20512;DHT22;10414;52.074;5.126;2023-06-14T14:41:02;26.20;67.30
20512;DHT22;10414;52.074;5.126;2023-06-14T14:43:28;26.50;67.20
20512;DHT22;10414;52.074;5.126;2023-06-14T14:45:57;26.50;67.00
20512;DHT22;10414;52.074;5.126;2023-06-14T14:48:27;26.20;67.30
20512;DHT22;10414;52.074;5.126;2023-06-14T14:50:57;26.00;67.50
20512;DHT22;10414;52.074;5.126;2023-06-14T14:53:24;26.00;67.20
20512;DHT22;10414;52.074;5.126;2023-06-14T14:55:51;25.90;67.30
20512;DHT22;10414;52.074;5.126;2023-06-14T14:58:19;26.10;67.50
20512;DHT22;10414;52.074;5.126;2023-06-14T15:00:46;25.90;68.20
20512;DHT22;10414;52.074;5.126;2023-06-14T15:03:13;26.00;68.20
20512;DHT22;10414;52.074;5.126;2023-06-14T15:05:40;26.00;67.70
20512;DHT22;10414;52.074;5.126;2023-06-14T15:08:07;26.00;67.70
20512;DHT22;10414;52.074;5.126;2023-06-14T15:10:37;26.10;67.20
20512;DHT22;10414;52.074;5.126;2023-06-14T15:13:06;26.20;67.40
20512;DHT22;10414;52.074;5.126;2023-06-14T15:15:35;26.10;67.30
20512;DHT22;10414;52.074;5.126;2023-06-14T15:18:02;26.00;67.40
20512;DHT22;10414;52.074;5.126;2023-06-14T15:20:30;25.90;66.80
20512;DHT22;10414;52.074;5.126;2023-06-14T15:22:57;26.20;66.70
20512;DHT22;10414;52.074;5.126;2023-06-14T15:25:25;26.20;66.10
20512;DHT22;10414;52.074;5.126;2023-06-14T15:27:52;26.00;66.20
20512;DHT22;10414;52.074;5.126;2023-06-14T15:30:19;26.00;66.30
20512;DHT22;10414;52.074;5.126;2023-06-14T15:32:48;26.10;66.50
20512;DHT22;10414;52.074;5.126;2023-06-14T15:35:15;26.10;66.30
20512;DHT22;10414;52.074;5.126;2023-06-14T15:37:42;26.20;66.30
20512;DHT22;10414;52.074;5.126;2023-06-14T15:40:10;26.20;65.80